createdAt,value
2024-03-10T00:00:22.465Z,25.90
2024-03-10T00:02:49.948Z,25.33
2024-03-10T00:05:16.986Z,25.00
2024-03-10T00:07:44.990Z,25.57
2024-03-10T00:10:13.717Z,25.70
2024-03-10T00:12:40.551Z,26.13
2024-03-10T00:15:08.126Z,25.43
2024-03-10T00:17:36.870Z,26.10
2024-03-10T00:20:05.029Z,25.20
2024-03-10T00:22:32.010Z,24.07
2024-03-10T00:24:58.841Z,24.70
2024-03-10T00:27:25.809Z,25.90
2024-03-10T00:29:53.055Z,25.33
2024-03-10T00:32:19.772Z,24.80
2024-03-10T00:34:46.521Z,24.73
2024-03-10T00:37:13.309Z,24.67
2024-03-10T00:39:39.942Z,25.30
2024-03-10T00:42:07.250Z,24.53
2024-03-10T00:44:34.029Z,25.63
2024-03-10T00:47:00.819Z,24.63
2024-03-10T00:49:27.592Z,25.50
2024-03-10T00:51:54.289Z,25.53
2024-03-10T00:54:21.898Z,23.63
2024-03-10T00:56:48.942Z,25.17
2024-03-10T00:59:17.262Z,24.70
2024-03-10T01:01:44.269Z,25.03
2024-03-10T01:04:11.146Z,24.20
2024-03-10T01:06:38.260Z,24.73
2024-03-10T01:09:09.728Z,25.57
2024-03-10T01:11:49.610Z,24.87
2024-03-10T01:14:16.459Z,24.80
2024-03-10T01:16:43.309Z,24.07
2024-03-10T01:19:10.539Z,23.60
2024-03-10T01:21:37.479Z,24.53
2024-03-10T01:24:07.558Z,25.20
2024-03-10T01:26:35.421Z,24.10
2024-03-10T01:29:02.796Z,24.23
2024-03-10T01:31:29.765Z,25.30
2024-03-10T01:33:56.570Z,24.13
2024-03-10T01:36:23.547Z,24.70
2024-03-10T01:38:50.285Z,25.57
2024-03-10T01:41:17.048Z,25.13
2024-03-10T01:43:48.482Z,24.57
2024-03-10T01:46:16.608Z,23.73
2024-03-10T01:48:45.118Z,24.77
2024-03-10T01:51:14.391Z,24.87
2024-03-10T01:53:42.347Z,25.07
2024-03-10T01:56:12.689Z,25.13
2024-03-10T01:58:40.188Z,25.07
2024-03-10T02:01:07.510Z,23.80
2024-03-10T02:03:34.349Z,24.63
2024-03-10T02:06:01.572Z,24.93
2024-03-10T02:08:30.093Z,25.40
2024-03-10T02:10:57.050Z,24.93
2024-03-10T02:13:23.771Z,25.07
2024-03-10T02:16:04.094Z,25.17
2024-03-10T02:18:31.474Z,25.10
2024-03-10T02:20:59.119Z,24.80
2024-03-10T02:23:41.272Z,25.40
2024-03-10T02:26:11.378Z,25.53
2024-03-10T02:28:48.142Z,25.17
2024-03-10T02:31:33.431Z,25.90
2024-03-10T02:34:18.953Z,25.37
2024-03-10T02:37:04.308Z,25.97
2024-03-10T02:39:49.979Z,25.80
2024-03-10T02:42:35.108Z,25.07
2024-03-10T02:45:20.354Z,24.50
2024-03-10T02:47:47.272Z,25.60
2024-03-10T02:50:14.152Z,25.23
2024-03-10T02:52:41.152Z,27.03
2024-03-10T02:55:10.043Z,24.80
2024-03-10T02:57:36.774Z,26.43
2024-03-10T03:00:03.719Z,25.30
2024-03-10T03:02:31.348Z,25.53
2024-03-10T03:04:58.314Z,25.33
2024-03-10T03:07:25.074Z,25.37
2024-03-10T03:09:51.812Z,25.37
2024-03-10T03:12:18.536Z,25.83
2024-03-10T03:14:45.321Z,25.70
2024-03-10T03:17:12.044Z,26.13
2024-03-10T03:19:39.243Z,26.60
2024-03-10T03:22:05.972Z,25.50
2024-03-10T03:24:32.707Z,26.40
2024-03-10T03:26:59.673Z,26.10
2024-03-10T03:29:26.448Z,26.00
2024-03-10T03:31:53.209Z,24.70
2024-03-10T03:34:20.623Z,25.63
2024-03-10T03:36:47.311Z,26.10
2024-03-10T03:39:14.651Z,25.47
2024-03-10T03:41:41.395Z,24.60
2024-03-10T03:44:10.914Z,24.63
2024-03-10T03:46:37.675Z,23.40
2024-03-10T03:49:05.458Z,25.63
2024-03-10T03:51:32.128Z,25.03
2024-03-10T03:53:59.083Z,25.37
2024-03-10T03:56:25.800Z,25.27
2024-03-10T03:58:52.760Z,25.10
2024-03-10T04:01:19.534Z,24.87
2024-03-10T04:03:46.229Z,26.13
2024-03-10T04:06:15.624Z,25.97
2024-03-10T04:08:42.877Z,26.83
2024-03-10T04:11:09.640Z,25.83
2024-03-10T04:13:36.368Z,25.97
2024-03-10T04:16:03.214Z,26.63
2024-03-10T04:18:29.920Z,25.90
2024-03-10T04:20:57.018Z,25.23
2024-03-10T04:23:24.225Z,26.10
2024-03-10T04:25:52.827Z,25.37
2024-03-10T04:28:19.555Z,25.93
2024-03-10T04:30:46.652Z,26.27
2024-03-10T04:33:13.577Z,26.03
2024-03-10T04:35:40.346Z,26.07
2024-03-10T04:38:07.452Z,26.13
2024-03-10T04:40:34.296Z,26.67
2024-03-10T04:43:00.994Z,25.97
2024-03-10T04:45:28.522Z,26.53
2024-03-10T04:47:55.523Z,25.80
2024-03-10T04:50:22.312Z,26.27
2024-03-10T04:52:49.390Z,25.47
2024-03-10T04:55:16.189Z,25.80
2024-03-10T04:57:42.937Z,26.70
2024-03-10T05:00:11.305Z,26.57
2024-03-10T05:02:38.232Z,27.43
2024-03-10T05:05:05.444Z,26.77
2024-03-10T05:07:32.196Z,25.97
2024-03-10T05:09:59.580Z,26.10
2024-03-10T05:12:26.342Z,26.73
2024-03-10T05:14:53.057Z,25.73
2024-03-10T05:17:19.738Z,25.73
2024-03-10T05:19:46.573Z,25.67
2024-03-10T05:22:14.026Z,26.77
2024-03-10T05:24:43.966Z,27.10
2024-03-10T05:27:11.056Z,26.07
2024-03-10T05:29:38.082Z,25.83
2024-03-10T05:32:05.757Z,26.77
2024-03-10T05:34:40.662Z,26.80
2024-03-10T05:37:07.364Z,26.83
2024-03-10T05:39:33.997Z,26.37
2024-03-10T05:42:00.913Z,26.33
2024-03-10T05:44:27.853Z,26.17
2024-03-10T05:46:54.789Z,27.23
2024-03-10T05:49:22.050Z,27.00
2024-03-10T05:51:49.149Z,26.87
2024-03-10T05:54:15.965Z,25.77
2024-03-10T05:56:42.601Z,27.53
2024-03-10T05:59:10.695Z,26.63
2024-03-10T06:01:37.533Z,25.93
2024-03-10T06:04:04.476Z,27.70
2024-03-10T06:06:32.040Z,27.47
2024-03-10T06:08:58.719Z,26.70
2024-03-10T06:11:25.468Z,27.07
2024-03-10T06:13:52.207Z,26.73
2024-03-10T06:16:22.177Z,26.83
2024-03-10T06:18:59.248Z,26.73
2024-03-10T06:21:46.124Z,26.97
2024-03-10T06:24:32.277Z,27.43
2024-03-10T06:27:02.183Z,26.80
2024-03-10T06:29:29.059Z,26.77
2024-03-10T06:31:59.986Z,27.23
2024-03-10T06:34:26.997Z,27.93
2024-03-10T06:36:53.717Z,26.80
2024-03-10T06:39:20.868Z,27.10
2024-03-10T06:41:48.314Z,26.63
2024-03-10T06:44:16.434Z,26.20
2024-03-10T06:46:43.765Z,26.57
2024-03-10T06:49:10.500Z,27.10
2024-03-10T06:51:37.233Z,28.20
2024-03-10T06:54:04.987Z,27.73
2024-03-10T06:56:31.975Z,26.40
2024-03-10T06:58:58.909Z,27.90
2024-03-10T07:01:25.695Z,27.37
2024-03-10T07:03:53.841Z,27.90
2024-03-10T07:06:22.669Z,26.63
2024-03-10T07:08:50.581Z,27.20
2024-03-10T07:11:17.457Z,26.37
2024-03-10T07:13:44.250Z,26.20
2024-03-10T07:16:10.940Z,27.93
2024-03-10T07:18:38.224Z,28.77
2024-03-10T07:21:06.583Z,27.30
2024-03-10T07:23:33.503Z,27.50
2024-03-10T07:26:01.832Z,28.73
2024-03-10T07:28:28.657Z,26.90
2024-03-10T07:30:55.474Z,27.67
2024-03-10T07:33:22.592Z,28.90
2024-03-10T07:35:49.602Z,28.43
2024-03-10T07:38:16.902Z,28.43
2024-03-10T07:40:43.806Z,28.10
2024-03-10T07:43:10.565Z,28.07
2024-03-10T07:45:37.756Z,28.10
2024-03-10T07:48:06.696Z,27.53
2024-03-10T07:50:33.827Z,28.10
2024-03-10T07:53:00.801Z,27.87
2024-03-10T07:55:33.388Z,27.33
2024-03-10T07:58:00.267Z,28.23
2024-03-10T08:00:27.674Z,27.27
2024-03-10T08:02:55.105Z,27.87
2024-03-10T08:05:22.565Z,27.97
2024-03-10T08:07:50.962Z,28.50
2024-03-10T08:10:18.781Z,36.17
2024-03-10T08:12:47.045Z,30.20
2024-03-10T08:15:14.616Z,26.77
2024-03-10T08:17:42.763Z,27.47
2024-03-10T08:20:14.988Z,27.27
2024-03-10T08:22:43.033Z,27.87
2024-03-10T08:25:10.801Z,28.47
2024-03-10T08:27:37.659Z,27.63
2024-03-10T08:30:05.916Z,28.03
2024-03-10T08:32:32.982Z,27.57
2024-03-10T08:34:59.833Z,28.27
2024-03-10T08:37:29.153Z,28.83
2024-03-10T08:39:55.916Z,27.37
2024-03-10T08:42:25.794Z,27.47
2024-03-10T08:44:52.569Z,27.57
2024-03-10T08:47:19.397Z,26.63
2024-03-10T08:49:46.191Z,28.10
2024-03-10T08:52:13.523Z,28.10
2024-03-10T08:54:40.258Z,27.90
2024-03-10T08:57:07.060Z,27.40
2024-03-10T08:59:34.052Z,27.50
2024-03-10T09:02:02.982Z,27.37
2024-03-10T09:04:29.879Z,28.13
2024-03-10T09:06:56.591Z,27.83
2024-03-10T09:09:23.543Z,27.17
2024-03-10T09:11:50.441Z,27.43
2024-03-10T09:14:19.939Z,26.27
2024-03-10T09:16:47.084Z,27.37
2024-03-10T09:19:15.428Z,26.13
2024-03-10T09:21:43.668Z,27.37
2024-03-10T09:24:11.570Z,26.80
2024-03-10T09:26:38.483Z,26.10
2024-03-10T09:29:07.315Z,28.17
2024-03-10T09:31:34.055Z,26.10
2024-03-10T09:34:00.907Z,28.30
2024-03-10T09:36:28.173Z,26.10
2024-03-10T09:38:55.391Z,25.87
2024-03-10T09:41:22.389Z,25.27
2024-03-10T09:43:52.487Z,25.17
2024-03-10T09:46:19.344Z,27.27
2024-03-10T09:48:46.414Z,26.13
2024-03-10T09:51:14.703Z,25.80
2024-03-10T09:53:42.029Z,26.20
2024-03-10T09:56:13.789Z,24.03
2024-03-10T09:59:01.245Z,24.97
2024-03-10T10:01:29.649Z,24.50
2024-03-10T10:04:02.691Z,24.57
2024-03-10T10:06:32.560Z,24.33
2024-03-10T10:09:08.429Z,24.67
2024-03-10T10:11:35.585Z,24.13
2024-03-10T10:14:16.884Z,24.43
2024-03-10T10:16:57.696Z,23.53
2024-03-10T10:19:28.607Z,25.77
2024-03-10T10:21:55.489Z,24.33
2024-03-10T10:24:22.752Z,23.73
2024-03-10T10:27:05.842Z,24.10
2024-03-10T10:29:50.439Z,24.07
2024-03-10T10:32:21.721Z,23.70
2024-03-10T10:34:49.254Z,23.67
2024-03-10T10:37:15.954Z,23.60
2024-03-10T10:39:42.703Z,23.97
2024-03-10T10:42:15.487Z,22.90
2024-03-10T10:44:48.057Z,23.67
2024-03-10T10:47:16.125Z,23.40
2024-03-10T10:49:42.840Z,22.60
2024-03-10T10:52:13.027Z,23.10
2024-03-10T10:54:41.953Z,23.90
2024-03-10T10:57:10.033Z,23.67
2024-03-10T10:59:38.025Z,24.47
2024-03-10T11:02:07.833Z,23.13
2024-03-10T11:04:38.255Z,23.40
2024-03-10T11:07:06.617Z,23.83
2024-03-10T11:09:33.332Z,23.37
2024-03-10T11:12:17.855Z,21.07
2024-03-10T11:14:48.105Z,25.27
2024-03-10T11:17:19.398Z,24.80
2024-03-10T11:19:51.035Z,25.07
2024-03-10T11:22:29.306Z,24.60
2024-03-10T11:25:17.675Z,24.87
2024-03-10T11:27:46.691Z,23.93
2024-03-10T11:30:41.463Z,24.23
2024-03-10T11:33:09.325Z,23.10
2024-03-10T11:35:36.736Z,23.97
2024-03-10T11:38:05.391Z,24.60
2024-03-10T11:40:32.332Z,24.90
2024-03-10T11:43:02.217Z,23.93
2024-03-10T11:45:31.866Z,25.53
2024-03-10T11:47:58.760Z,23.07
2024-03-10T11:50:26.627Z,23.03
2024-03-10T11:52:53.505Z,22.27
2024-03-10T11:55:21.639Z,23.77
2024-03-10T11:57:54.836Z,24.23
2024-03-10T12:00:27.625Z,23.87
2024-03-10T12:02:55.540Z,22.60
2024-03-10T12:05:23.793Z,24.40
2024-03-10T12:07:55.853Z,23.07
2024-03-10T12:10:25.548Z,22.77
2024-03-10T12:12:52.866Z,21.13
2024-03-10T12:15:25.384Z,23.47
2024-03-10T12:17:53.822Z,23.47
2024-03-10T12:20:22.038Z,21.37
2024-03-10T12:22:49.783Z,22.90
2024-03-10T12:25:19.313Z,22.80
2024-03-10T12:27:48.809Z,23.10
2024-03-10T12:30:15.807Z,23.03
2024-03-10T12:32:49.615Z,21.57
2024-03-10T12:35:17.349Z,22.47
2024-03-10T12:37:44.085Z,23.30
2024-03-10T12:40:15.972Z,24.03
2024-03-10T12:42:48.357Z,23.03
2024-03-10T12:45:17.312Z,23.00
2024-03-10T12:47:45.537Z,21.87
2024-03-10T12:50:14.114Z,22.73
2024-03-10T12:52:41.155Z,23.57
2024-03-10T12:55:09.242Z,25.20
2024-03-10T12:57:37.636Z,23.67
2024-03-10T13:00:30.261Z,23.77
2024-03-10T13:02:59.249Z,23.43
2024-03-10T13:05:28.957Z,24.10
2024-03-10T13:07:58.404Z,24.03
2024-03-10T13:10:26.523Z,22.50
2024-03-10T13:12:53.267Z,22.90
2024-03-10T13:15:21.246Z,23.50
2024-03-10T13:17:48.437Z,22.67
2024-03-10T13:20:18.160Z,22.70
2024-03-10T13:22:46.855Z,22.70
2024-03-10T13:25:15.415Z,21.83
2024-03-10T13:27:46.154Z,23.03
2024-03-10T13:30:15.208Z,21.90
2024-03-10T13:32:42.833Z,23.93
2024-03-10T13:35:10.244Z,22.37
2024-03-10T13:37:37.340Z,22.30
2024-03-10T13:40:06.449Z,23.27
2024-03-10T13:42:33.558Z,23.83
2024-03-10T13:45:00.352Z,23.57
2024-03-10T13:47:27.302Z,22.90
2024-03-10T13:49:54.066Z,22.57
2024-03-10T13:52:21.443Z,23.30
2024-03-10T13:54:51.605Z,23.60
2024-03-10T13:57:22.285Z,21.73
2024-03-10T13:59:50.045Z,22.43
2024-03-10T14:02:16.798Z,22.23
2024-03-10T14:04:44.556Z,22.73
2024-03-10T14:07:12.635Z,21.90
2024-03-10T14:09:39.357Z,21.80
2024-03-10T14:12:08.330Z,17.50
2024-03-10T14:14:40.351Z,23.27
2024-03-10T14:17:08.173Z,24.40
2024-03-10T14:19:35.000Z,22.83
2024-03-10T14:22:01.732Z,21.97
2024-03-10T14:24:28.494Z,21.70
2024-03-10T14:26:57.522Z,22.90
2024-03-10T14:29:25.993Z,23.40
2024-03-10T14:31:53.848Z,22.10
2024-03-10T14:34:20.595Z,21.83
2024-03-10T14:36:47.366Z,21.80
2024-03-10T14:39:14.748Z,21.57
2024-03-10T14:41:41.790Z,22.20
2024-03-10T14:44:11.403Z,21.73
2024-03-10T14:46:38.550Z,20.33
2024-03-10T14:49:05.695Z,20.97
2024-03-10T14:51:37.021Z,21.00
2024-03-10T14:54:04.292Z,20.43
2024-03-10T14:56:31.065Z,21.20
2024-03-10T14:58:57.865Z,20.87
2024-03-10T15:01:28.903Z,19.07
2024-03-10T15:03:58.387Z,20.27
2024-03-10T15:06:26.645Z,20.17
2024-03-10T15:08:58.625Z,20.73
2024-03-10T15:11:25.437Z,19.77
2024-03-10T15:13:52.367Z,19.63
2024-03-10T15:16:20.893Z,19.37
2024-03-10T15:18:47.588Z,17.50
2024-03-10T15:21:14.457Z,19.20
2024-03-10T15:23:41.495Z,18.70
2024-03-10T15:26:08.390Z,19.03
2024-03-10T15:28:35.118Z,19.40
2024-03-10T15:31:02.049Z,19.53
2024-03-10T15:33:29.177Z,18.07
2024-03-10T15:35:56.596Z,18.97
2024-03-10T15:38:23.591Z,19.90
2024-03-10T15:40:50.650Z,19.10
2024-03-10T15:43:18.245Z,18.70
2024-03-10T15:45:47.946Z,19.03
2024-03-10T15:48:14.750Z,19.13
2024-03-10T15:50:44.743Z,18.90
2024-03-10T15:53:12.061Z,19.00
2024-03-10T15:55:39.232Z,19.30
2024-03-10T15:58:07.004Z,18.67
2024-03-10T16:00:34.131Z,18.97
2024-03-10T16:03:11.759Z,22.93
2024-03-10T16:05:53.684Z,18.43
2024-03-10T16:08:23.041Z,17.30
2024-03-10T16:10:50.286Z,17.57
2024-03-10T16:13:26.787Z,19.27
2024-03-10T16:15:53.827Z,18.80
2024-03-10T16:18:20.924Z,18.63
2024-03-10T16:20:49.226Z,18.50
2024-03-10T16:23:16.451Z,18.40
2024-03-10T16:25:43.609Z,18.43
2024-03-10T16:28:10.468Z,18.97
2024-03-10T16:30:37.144Z,18.87
2024-03-10T16:33:04.068Z,21.13
2024-03-10T16:35:31.011Z,23.60
2024-03-10T16:37:58.185Z,23.10
2024-03-10T16:40:25.308Z,23.90
2024-03-10T16:42:52.032Z,23.80
2024-03-10T16:45:19.282Z,23.07
2024-03-10T16:47:49.221Z,24.87
2024-03-10T16:50:24.860Z,23.87
2024-03-10T16:52:53.233Z,25.67
2024-03-10T16:55:24.773Z,24.83
2024-03-10T16:57:54.720Z,19.10
2024-03-10T17:00:21.631Z,24.53
2024-03-10T17:02:48.476Z,25.17
2024-03-10T17:05:16.334Z,25.43
2024-03-10T17:07:43.378Z,26.07
2024-03-10T17:10:10.531Z,24.73
2024-03-10T17:12:38.718Z,25.23
2024-03-10T17:15:16.820Z,25.20
2024-03-10T17:17:44.461Z,25.27
2024-03-10T17:20:17.982Z,26.87
2024-03-10T17:22:44.877Z,25.70
2024-03-10T17:25:13.979Z,26.33
2024-03-10T17:27:41.916Z,25.73
2024-03-10T17:30:09.548Z,25.50
2024-03-10T17:32:37.256Z,25.30
2024-03-10T17:35:04.956Z,25.27
2024-03-10T17:37:31.763Z,24.60
2024-03-10T17:39:58.609Z,25.17
2024-03-10T17:42:31.309Z,24.57
2024-03-10T17:44:58.605Z,24.47
2024-03-10T17:47:25.466Z,24.57
2024-03-10T17:49:52.127Z,25.47
2024-03-10T17:52:18.791Z,24.87
2024-03-10T17:54:45.440Z,25.07
2024-03-10T17:57:12.142Z,25.23
2024-03-10T17:59:40.070Z,25.33
2024-03-10T18:02:06.912Z,25.23
2024-03-10T18:04:37.126Z,23.33
2024-03-10T18:07:08.432Z,24.13
2024-03-10T18:09:35.124Z,24.53
2024-03-10T18:12:02.116Z,24.70
2024-03-10T18:14:30.960Z,25.37
2024-03-10T18:16:59.687Z,24.17
2024-03-10T18:19:26.885Z,19.60
2024-03-10T18:21:55.356Z,24.77
2024-03-10T18:24:22.151Z,24.27
2024-03-10T18:26:48.866Z,23.40
2024-03-10T18:29:16.888Z,22.70
2024-03-10T18:31:43.940Z,20.63
2024-03-10T18:34:11.531Z,23.60
2024-03-10T18:36:39.352Z,22.97
2024-03-10T18:39:09.767Z,22.77
2024-03-10T18:41:37.717Z,16.63
2024-03-10T18:44:05.082Z,23.00
2024-03-10T18:46:32.775Z,21.17
2024-03-10T18:48:59.439Z,22.03
2024-03-10T18:51:26.327Z,22.63
2024-03-10T18:53:53.073Z,23.73
2024-03-10T18:56:20.927Z,23.27
2024-03-10T18:58:47.873Z,22.60
2024-03-10T19:01:17.504Z,21.93
2024-03-10T19:03:48.165Z,22.60
2024-03-10T19:06:17.088Z,21.17
2024-03-10T19:08:45.379Z,22.27
2024-03-10T19:11:12.861Z,22.30
2024-03-10T19:13:40.789Z,21.97
2024-03-10T19:16:09.968Z,21.30
2024-03-10T19:18:36.786Z,21.50
2024-03-10T19:21:04.626Z,22.30
2024-03-10T19:23:31.721Z,23.40
2024-03-10T19:26:00.548Z,21.00
2024-03-10T19:28:27.660Z,18.43
2024-03-10T19:30:55.761Z,22.77
2024-03-10T19:33:23.343Z,18.63
2024-03-10T19:35:50.545Z,22.27
2024-03-10T19:38:17.783Z,20.67
2024-03-10T19:40:44.695Z,20.27
2024-03-10T19:43:13.773Z,21.50
2024-03-10T19:45:42.853Z,22.80
2024-03-10T19:48:10.330Z,21.73
2024-03-10T19:50:37.033Z,21.10
2024-03-10T19:53:03.877Z,21.33
2024-03-10T19:55:30.738Z,19.57
2024-03-10T19:57:58.102Z,20.10
2024-03-10T20:00:25.400Z,19.73
2024-03-10T20:02:52.088Z,18.63
2024-03-10T20:05:19.031Z,18.83
2024-03-10T20:07:52.426Z,20.27
2024-03-10T20:10:21.320Z,19.50
2024-03-10T20:12:50.454Z,17.97
2024-03-10T20:15:17.661Z,19.20
2024-03-10T20:17:49.105Z,17.97
2024-03-10T20:20:22.824Z,17.77
2024-03-10T20:22:50.744Z,12.97
2024-03-10T20:25:19.581Z,18.67
2024-03-10T20:27:46.892Z,15.60
2024-03-10T20:30:15.325Z,18.17
2024-03-10T20:32:42.304Z,19.10
2024-03-10T20:35:12.428Z,18.57
2024-03-10T20:37:42.681Z,18.03
2024-03-10T20:40:12.756Z,18.40
2024-03-10T20:42:40.561Z,18.80
2024-03-10T20:45:13.719Z,17.93
2024-03-10T20:47:42.806Z,17.87
2024-03-10T20:50:10.254Z,18.40
2024-03-10T20:52:37.043Z,18.33
2024-03-10T20:55:04.552Z,19.63
2024-03-10T20:57:31.335Z,16.17
2024-03-10T20:59:59.815Z,17.80
2024-03-10T21:02:27.771Z,17.40
2024-03-10T21:05:04.283Z,17.77
2024-03-10T21:07:50.763Z,18.00
2024-03-10T21:10:20.932Z,18.07
2024-03-10T21:12:47.947Z,17.33
2024-03-10T21:15:15.382Z,17.57
2024-03-10T21:17:42.976Z,18.40
2024-03-10T21:20:12.572Z,17.77
2024-03-10T21:22:40.352Z,15.97
2024-03-10T21:25:07.835Z,17.47
2024-03-10T21:27:34.883Z,18.83
2024-03-10T21:30:01.842Z,17.70
2024-03-10T21:32:29.082Z,17.70
2024-03-10T21:34:55.834Z,17.87
2024-03-10T21:37:22.568Z,17.90
2024-03-10T21:39:49.271Z,17.70
2024-03-10T21:42:15.971Z,16.53
2024-03-10T21:44:43.629Z,17.23
2024-03-10T21:47:10.445Z,18.30
2024-03-10T21:49:38.687Z,17.50
2024-03-10T21:52:05.550Z,16.60
2024-03-10T21:54:32.415Z,17.53
2024-03-10T21:57:00.697Z,15.13
2024-03-10T21:59:27.501Z,17.37
2024-03-10T22:01:54.204Z,18.33
2024-03-10T22:04:21.027Z,17.03
2024-03-10T22:06:47.688Z,18.07
2024-03-10T22:09:15.699Z,16.57
2024-03-10T22:11:42.501Z,17.80
2024-03-10T22:14:09.292Z,17.77
2024-03-10T22:16:36.072Z,16.67
2024-03-10T22:19:03.019Z,18.00
2024-03-10T22:21:30.558Z,18.30
2024-03-10T22:23:57.268Z,17.87
2024-03-10T22:26:24.056Z,17.80
2024-03-10T22:28:51.911Z,17.33
2024-03-10T22:31:18.533Z,17.00
2024-03-10T22:33:45.207Z,18.10
2024-03-10T22:36:11.898Z,16.63
2024-03-10T22:38:38.608Z,16.83
2024-03-10T22:41:05.754Z,16.97
2024-03-10T22:43:34.834Z,17.23
2024-03-10T22:46:02.661Z,16.40
2024-03-10T22:48:29.374Z,17.43
2024-03-10T22:50:56.119Z,16.93
2024-03-10T22:53:22.837Z,17.53
2024-03-10T22:55:49.479Z,16.93
2024-03-10T22:58:17.534Z,16.57
2024-03-10T23:00:47.170Z,17.50
2024-03-10T23:03:16.408Z,17.23
2024-03-10T23:05:44.571Z,16.80
2024-03-10T23:08:12.539Z,18.20
2024-03-10T23:10:40.903Z,17.60
2024-03-10T23:13:09.499Z,17.20
2024-03-10T23:15:36.933Z,16.90
2024-03-10T23:18:04.031Z,17.40
2024-03-10T23:20:31.626Z,18.20
2024-03-10T23:22:59.020Z,16.80
2024-03-10T23:25:26.954Z,16.97
2024-03-10T23:27:54.884Z,17.13
2024-03-10T23:30:22.287Z,17.77
2024-03-10T23:32:50.717Z,17.07
2024-03-10T23:35:18.492Z,17.00
2024-03-10T23:37:45.401Z,16.43
2024-03-10T23:40:12.706Z,16.80
2024-03-10T23:42:43.595Z,14.70
2024-03-10T23:45:14.235Z,18.57
2024-03-10T23:47:42.875Z,17.57
2024-03-10T23:50:12.185Z,17.17
2024-03-10T23:52:40.322Z,16.80
2024-03-10T23:55:08.191Z,17.17
2024-03-10T23:57:35.169Z,17.10
